Main page
METAR-TAF:

METAR-TAF

Airports :

Dortmund Airport

Dortmund, Germany

latitude: 51-31N, longitude: 007-37E, elevation: 127 m

Current weather observation

The report was made 6 hours and 54 minutes ago, at 19:50 UTC
Wind 8 kt from the South/Southwest
Temperature 19°C
Humidity 78%
Pressure 1020 hPa
Visibility 10 km or more
Few clouds at a height of 2900 ft
Scattered clouds at a height of 3500 ft
Broken clouds at a height of 5500 ft

METAR: EDLW 181950Z 21008KT 9999 FEW029 SCT035 BKN055 19/15 Q1020

Time: 04:44 (02:44 UTC)

Forecast

The report was made 9 hours and 44 minutes ago, at 17:00 UTC
Forecast valid from 18 at 18 UTC to 19 at 18 UTC
Wind 8 kt from the Southwest
Visibility 10 km or more
Broken clouds at a height of 3500 ft
Becoming
from 19 at 16 UTC to 19 at 18 UTC
Wind 3 kt from variable directions

TAF: EDLW 181700Z 1818/1918 23008KT 9999 BKN035 BECMG 1916/1918 VRB03KT

Weather observations and forecasts of more than 4000 airports (METAR and TAF reports).

The available stations are represented by yellow and red dots on the map.

Hover mouse over dot to see the name of the station.

Then click to see weather observations and forecasts.

To change the map : click on the green buttons with a black cross to zoom in, on the green button with a dash to zoom out, or on the green arrows for adjacent maps.


METAR-TAF: